createdAt,value
2023-05-25T00:01:01.796Z,8.92
2023-05-25T00:01:51.966Z,8.98
2023-05-25T00:02:52.179Z,9.01
2023-05-25T00:03:52.013Z,8.99
2023-05-25T00:04:51.933Z,8.98
2023-05-25T00:05:51.891Z,8.98
2023-05-25T00:06:51.894Z,8.96
2023-05-25T00:07:51.877Z,8.92
2023-05-25T00:08:51.898Z,8.93
2023-05-25T00:09:51.872Z,8.93
2023-05-25T00:10:51.844Z,8.92
2023-05-25T00:11:51.842Z,8.89
2023-05-25T00:12:51.836Z,8.89
2023-05-25T00:13:51.822Z,8.86
2023-05-25T00:14:51.816Z,8.85
2023-05-25T00:15:51.830Z,8.81
2023-05-25T00:16:51.893Z,8.81
2023-05-25T00:17:51.838Z,8.78
2023-05-25T00:18:51.764Z,8.77
2023-05-25T00:19:51.750Z,8.78
2023-05-25T00:20:51.767Z,8.78
2023-05-25T00:21:51.727Z,8.78
2023-05-25T00:22:51.732Z,8.75
2023-05-25T00:23:51.718Z,8.74
2023-05-25T00:24:51.727Z,8.77
2023-05-25T00:25:51.689Z,8.78
2023-05-25T00:26:51.672Z,8.77
2023-05-25T00:27:51.683Z,8.75
2023-05-25T00:28:51.677Z,8.75
2023-05-25T00:29:51.644Z,8.72
2023-05-25T00:30:51.673Z,8.74
2023-05-25T00:31:51.616Z,8.75
2023-05-25T00:32:51.691Z,8.71
2023-05-25T00:33:51.629Z,8.67
2023-05-25T00:34:51.588Z,8.70
2023-05-25T00:35:51.583Z,8.67
2023-05-25T00:36:51.606Z,8.67
2023-05-25T00:37:51.555Z,8.67
2023-05-25T00:38:51.564Z,8.63
2023-05-25T00:39:51.549Z,8.65
2023-05-25T00:40:51.546Z,8.68
2023-05-25T00:41:51.532Z,8.67
2023-05-25T00:42:51.534Z,8.67
2023-05-25T00:43:51.515Z,8.65
2023-05-25T00:44:51.502Z,8.65
2023-05-25T00:45:51.499Z,8.67
2023-05-25T00:46:51.535Z,8.65
2023-05-25T00:47:51.516Z,8.68
2023-05-25T00:48:51.483Z,8.68
2023-05-25T00:49:51.449Z,8.67
2023-05-25T00:50:51.435Z,8.65
2023-05-25T00:51:51.414Z,8.63
2023-05-25T00:52:51.416Z,8.63
2023-05-25T00:53:51.434Z,8.65
2023-05-25T00:54:51.411Z,8.67
2023-05-25T00:55:51.378Z,8.65
2023-05-25T00:56:51.386Z,8.65
2023-05-25T00:57:51.379Z,8.68
2023-05-25T00:58:51.362Z,8.71
2023-05-25T00:59:51.407Z,8.71
2023-05-25T01:00:51.326Z,8.70
2023-05-25T01:01:51.374Z,8.71
2023-05-25T01:02:51.393Z,8.71
2023-05-25T01:03:51.330Z,8.74
2023-05-25T01:04:51.286Z,8.72
2023-05-25T01:05:51.288Z,8.75
2023-05-25T01:06:51.269Z,8.80
2023-05-25T01:07:51.272Z,8.80
2023-05-25T01:08:51.227Z,8.78
2023-05-25T01:09:51.260Z,8.81
2023-05-25T01:10:51.253Z,8.78
2023-05-25T01:11:51.217Z,8.77
2023-05-25T01:12:51.206Z,8.74
2023-05-25T01:13:51.200Z,8.74
2023-05-25T01:14:51.208Z,8.74
2023-05-25T01:15:51.158Z,8.77
2023-05-25T01:16:51.276Z,8.75
2023-05-25T01:17:51.173Z,8.72
2023-05-25T01:18:51.166Z,8.75
2023-05-25T01:20:08.354Z,8.74
2023-05-25T01:20:51.162Z,8.74
2023-05-25T01:21:51.148Z,8.77
2023-05-25T01:22:51.092Z,8.75
2023-05-25T01:23:51.088Z,8.75
2023-05-25T01:24:51.072Z,8.75
2023-05-25T01:25:51.080Z,8.72
2023-05-25T01:26:51.039Z,8.72
2023-05-25T01:27:51.064Z,8.70
2023-05-25T01:28:51.022Z,8.68
2023-05-25T01:29:51.032Z,8.67
2023-05-25T01:30:51.028Z,8.63
2023-05-25T01:31:51.029Z,8.59
2023-05-25T01:32:51.023Z,8.56
2023-05-25T01:33:50.984Z,8.52
2023-05-25T01:34:51.009Z,8.50
2023-05-25T01:35:50.952Z,8.50
2023-05-25T01:36:50.980Z,8.52
2023-05-25T01:37:50.930Z,8.50
2023-05-25T01:38:50.919Z,8.47
2023-05-25T01:39:50.932Z,8.47
2023-05-25T01:40:50.919Z,8.46
2023-05-25T01:41:50.908Z,8.44
2023-05-25T01:42:50.905Z,8.47
2023-05-25T01:43:50.876Z,8.49
2023-05-25T01:44:50.859Z,8.46
2023-05-25T01:45:50.902Z,8.49
2023-05-25T01:46:50.830Z,8.50
2023-05-25T01:47:50.866Z,8.52
2023-05-25T01:48:50.830Z,8.56
2023-05-25T01:49:50.817Z,8.56
2023-05-25T01:50:50.805Z,8.55
2023-05-25T01:51:50.824Z,8.57
2023-05-25T01:52:50.779Z,8.57
2023-05-25T01:53:50.774Z,8.57
2023-05-25T01:54:50.767Z,8.56
2023-05-25T01:55:50.766Z,8.59
2023-05-25T01:56:50.744Z,8.60
2023-05-25T01:57:50.738Z,8.63
2023-05-25T01:58:50.798Z,8.62
2023-05-25T01:59:50.707Z,8.59
2023-05-25T02:00:50.703Z,8.60
2023-05-25T02:01:52.928Z,8.62
2023-05-25T02:02:50.718Z,8.62
2023-05-25T02:03:50.700Z,8.60
2023-05-25T02:04:50.682Z,8.59
2023-05-25T02:05:50.608Z,8.59
2023-05-25T02:06:50.640Z,8.59
2023-05-25T02:07:50.637Z,8.57
2023-05-25T02:08:50.612Z,8.56
2023-05-25T02:09:50.596Z,8.53
2023-05-25T02:10:50.545Z,8.52
2023-05-25T02:11:50.543Z,8.53
2023-05-25T02:12:50.520Z,8.53
2023-05-25T02:13:50.524Z,8.53
2023-05-25T02:14:50.493Z,8.53
2023-05-25T02:15:50.594Z,8.53
2023-05-25T02:16:50.501Z,8.52
2023-05-25T02:17:50.502Z,8.53
2023-05-25T02:18:50.447Z,8.55
2023-05-25T02:19:50.512Z,8.56
2023-05-25T02:20:50.457Z,8.53
2023-05-25T02:21:50.427Z,8.50
2023-05-25T02:22:50.433Z,8.52
2023-05-25T02:23:50.416Z,8.50
2023-05-25T02:24:50.382Z,8.52
2023-05-25T02:25:50.393Z,8.49
2023-05-25T02:26:50.368Z,8.46
2023-05-25T02:27:50.366Z,8.46
2023-05-25T02:28:50.364Z,8.42
2023-05-25T02:29:50.371Z,8.39
2023-05-25T02:30:50.376Z,8.39
2023-05-25T02:31:50.462Z,8.44
2023-05-25T02:32:50.386Z,8.42
2023-05-25T02:33:50.299Z,8.44
2023-05-25T02:34:50.294Z,8.44
2023-05-25T02:35:50.279Z,8.41
2023-05-25T02:36:50.308Z,8.37
2023-05-25T02:37:51.251Z,8.34
2023-05-25T02:38:50.240Z,8.35
2023-05-25T02:39:50.248Z,8.34
2023-05-25T02:40:50.231Z,8.35
2023-05-25T02:41:50.215Z,8.31
2023-05-25T02:42:50.241Z,8.32
2023-05-25T02:43:50.234Z,8.32
2023-05-25T02:44:50.191Z,8.28
2023-05-25T02:45:50.171Z,8.31
2023-05-25T02:46:50.208Z,8.34
2023-05-25T02:47:50.173Z,8.41
2023-05-25T02:48:50.173Z,8.53
2023-05-25T02:49:56.712Z,8.60
2023-05-25T02:50:50.153Z,8.67
2023-05-25T02:51:50.125Z,8.60
2023-05-25T02:52:50.098Z,8.59
2023-05-25T02:53:50.105Z,8.56
2023-05-25T02:54:50.105Z,8.59
2023-05-25T02:55:50.072Z,8.60
2023-05-25T02:56:50.063Z,8.57
2023-05-25T02:57:50.065Z,8.59
2023-05-25T02:58:50.045Z,8.59
2023-05-25T02:59:50.041Z,8.56
2023-05-25T03:00:50.055Z,8.56
2023-05-25T03:01:50.033Z,8.56
2023-05-25T03:02:50.075Z,8.55
2023-05-25T03:03:50.047Z,8.55
2023-05-25T03:04:49.977Z,8.53
2023-05-25T03:05:49.960Z,8.50
2023-05-25T03:06:49.969Z,8.50
2023-05-25T03:07:50.001Z,8.49
2023-05-25T03:08:49.940Z,8.47
2023-05-25T03:09:49.971Z,8.47
2023-05-25T03:10:49.941Z,8.44
2023-05-25T03:11:49.914Z,8.44
2023-05-25T03:12:49.907Z,8.42
2023-05-25T03:13:49.904Z,8.39
2023-05-25T03:14:49.873Z,8.38
2023-05-25T03:15:49.889Z,8.38
2023-05-25T03:16:52.187Z,8.39
2023-05-25T03:17:49.877Z,8.39
2023-05-25T03:18:49.839Z,8.39
2023-05-25T03:19:49.827Z,8.39
2023-05-25T03:20:49.871Z,8.39
2023-05-25T03:21:49.838Z,8.39
2023-05-25T03:22:49.806Z,8.41
2023-05-25T03:23:49.824Z,8.44
2023-05-25T03:24:49.801Z,8.46
2023-05-25T03:25:49.781Z,8.47
2023-05-25T03:26:49.805Z,8.52
2023-05-25T03:27:49.736Z,8.53
2023-05-25T03:28:49.735Z,8.56
2023-05-25T03:29:49.733Z,8.60
2023-05-25T03:30:49.730Z,8.60
2023-05-25T03:31:49.834Z,8.62
2023-05-25T03:32:49.732Z,8.67
2023-05-25T03:33:49.724Z,8.68
2023-05-25T03:34:49.730Z,8.70
2023-05-25T03:35:49.676Z,8.77
2023-05-25T03:36:49.761Z,8.81
2023-05-25T03:37:49.688Z,8.88
2023-05-25T03:38:49.661Z,8.92
2023-05-25T03:39:49.638Z,8.98
2023-05-25T03:40:49.620Z,9.06
2023-05-25T03:41:49.617Z,9.12
2023-05-25T03:42:49.611Z,9.19
2023-05-25T03:43:49.606Z,9.29
2023-05-25T03:44:49.639Z,9.41
2023-05-25T03:45:49.620Z,9.51
2023-05-25T03:46:49.584Z,9.63
2023-05-25T03:47:49.633Z,9.72
2023-05-25T03:48:49.569Z,9.81
2023-05-25T03:49:49.555Z,9.88
2023-05-25T03:50:49.506Z,9.96
2023-05-25T03:51:49.528Z,10.03
2023-05-25T03:52:49.522Z,10.10
2023-05-25T03:53:49.492Z,10.18
2023-05-25T03:54:49.494Z,10.24
2023-05-25T03:55:49.460Z,10.27
2023-05-25T03:56:49.480Z,10.30
2023-05-25T03:57:49.484Z,10.38
2023-05-25T03:58:57.138Z,10.45
2023-05-25T03:59:56.052Z,10.43
2023-05-25T04:00:55.995Z,10.42
2023-05-25T04:03:03.886Z,10.54
2023-05-25T04:04:11.466Z,10.62
2023-05-25T04:09:29.861Z,10.86
2023-05-25T04:10:30.844Z,10.94
2023-05-25T04:11:30.827Z,10.98
2023-05-25T04:12:30.814Z,10.95
2023-05-25T04:13:30.803Z,10.94
2023-05-25T04:14:30.774Z,11.04
2023-05-25T04:15:30.794Z,11.04
2023-05-25T04:16:30.831Z,11.11
2023-05-25T04:17:30.818Z,11.16
2023-05-25T04:18:30.747Z,11.23
2023-05-25T04:19:30.787Z,11.30
2023-05-25T04:20:30.792Z,11.28
2023-05-25T04:21:30.728Z,11.15
2023-05-25T04:22:30.781Z,11.22
2023-05-25T04:23:30.680Z,11.33
2023-05-25T04:24:30.680Z,11.41
2023-05-25T04:25:30.685Z,11.49
2023-05-25T04:26:30.660Z,11.51
2023-05-25T04:27:30.688Z,11.54
2023-05-25T04:28:30.708Z,11.46
2023-05-25T04:29:30.638Z,11.55
2023-05-25T04:30:30.597Z,11.67
2023-05-25T04:31:30.658Z,11.61
2023-05-25T04:32:30.622Z,11.70
2023-05-25T04:33:30.582Z,11.70
2023-05-25T04:34:30.550Z,11.69
2023-05-25T04:35:30.617Z,11.71
2023-05-25T04:36:30.542Z,11.76
2023-05-25T04:37:30.541Z,11.80
2023-05-25T04:38:30.539Z,11.97
2023-05-25T04:39:30.541Z,12.07
2023-05-25T04:40:30.510Z,12.10
2023-05-25T04:41:30.488Z,12.10
2023-05-25T04:42:30.475Z,12.10
2023-05-25T04:43:30.470Z,12.10
2023-05-25T04:44:30.465Z,12.17
2023-05-25T04:45:30.528Z,12.18
2023-05-25T04:46:30.474Z,12.28
2023-05-25T04:47:30.458Z,12.29
2023-05-25T04:48:30.411Z,12.36
2023-05-25T04:49:30.390Z,12.41
2023-05-25T04:50:30.403Z,12.35
2023-05-25T04:51:30.592Z,12.36
2023-05-25T04:52:30.351Z,12.50
2023-05-25T04:53:30.429Z,12.63
2023-05-25T04:54:30.351Z,12.76
2023-05-25T04:55:30.369Z,12.81
2023-05-25T04:56:30.367Z,12.77
2023-05-25T04:57:30.347Z,12.80
2023-05-25T04:58:30.295Z,12.61
2023-05-25T04:59:30.318Z,12.55
2023-05-25T05:00:30.271Z,12.53
2023-05-25T05:01:30.295Z,12.62
2023-05-25T05:02:30.340Z,12.76
2023-05-25T05:03:30.257Z,12.84
2023-05-25T05:04:30.237Z,12.96
2023-05-25T05:05:30.250Z,13.06
2023-05-25T05:06:30.210Z,13.09
2023-05-25T05:07:30.211Z,13.16
2023-05-25T05:08:30.198Z,13.24
2023-05-25T05:09:30.185Z,13.20
2023-05-25T05:10:30.184Z,13.11
2023-05-25T05:11:30.164Z,13.09
2023-05-25T05:12:30.156Z,13.05
2023-05-25T05:13:30.153Z,12.90
2023-05-25T05:14:30.175Z,12.95
2023-05-25T05:15:30.132Z,12.95
2023-05-25T05:16:30.143Z,12.98
2023-05-25T05:17:30.141Z,13.08
2023-05-25T05:18:30.067Z,13.17
2023-05-25T05:19:30.078Z,13.30
2023-05-25T05:20:30.141Z,13.47
2023-05-25T05:21:30.071Z,13.60
2023-05-25T05:22:30.038Z,13.68
2023-05-25T05:23:30.056Z,13.73
2023-05-25T05:24:30.014Z,13.90
2023-05-25T05:25:30.050Z,13.86
2023-05-25T05:26:30.631Z,13.86
2023-05-25T05:27:30.000Z,14.01
2023-05-25T05:28:29.991Z,14.05
2023-05-25T05:29:29.957Z,13.98
2023-05-25T05:30:29.953Z,13.86
2023-05-25T05:31:30.155Z,13.79
2023-05-25T05:32:29.972Z,13.82
2023-05-25T05:33:30.016Z,13.80
2023-05-25T05:34:29.911Z,13.68
2023-05-25T05:35:29.934Z,13.80
2023-05-25T05:36:29.937Z,13.93
2023-05-25T05:37:29.925Z,13.91
2023-05-25T05:38:29.866Z,13.85
2023-05-25T05:39:29.873Z,13.88
2023-05-25T05:40:29.882Z,13.73
2023-05-25T05:41:29.833Z,13.73
2023-05-25T05:42:29.836Z,13.72
2023-05-25T05:43:29.833Z,13.85
2023-05-25T05:44:29.811Z,13.96
2023-05-25T05:45:29.829Z,14.08
2023-05-25T05:46:29.838Z,14.11
2023-05-25T05:47:29.804Z,14.18
2023-05-25T05:48:29.747Z,14.15
2023-05-25T05:49:29.756Z,13.93
2023-05-25T05:50:29.745Z,13.91
2023-05-25T05:51:29.736Z,13.97
2023-05-25T05:52:29.736Z,13.98
2023-05-25T05:53:29.701Z,14.04
2023-05-25T05:54:29.698Z,13.88
2023-05-25T05:55:29.696Z,13.86
2023-05-25T05:56:29.672Z,14.04
2023-05-25T05:57:29.645Z,14.01
2023-05-25T05:58:29.686Z,13.93
2023-05-25T05:59:29.656Z,13.90
2023-05-25T06:00:29.740Z,14.05
2023-05-25T06:01:29.605Z,14.31
2023-05-25T06:02:29.647Z,14.49
2023-05-25T06:03:29.670Z,14.41
2023-05-25T06:04:29.604Z,14.45
2023-05-25T06:05:29.682Z,14.63
2023-05-25T06:06:29.591Z,14.55
2023-05-25T06:07:29.721Z,14.31
2023-05-25T06:08:29.544Z,14.27
2023-05-25T06:09:29.586Z,14.18
2023-05-25T06:10:29.572Z,14.30
2023-05-25T06:11:29.583Z,14.51
2023-05-25T06:12:29.575Z,14.70
2023-05-25T06:13:29.483Z,14.67
2023-05-25T06:14:29.476Z,14.71
2023-05-25T06:15:29.510Z,14.83
2023-05-25T06:16:29.509Z,14.90
2023-05-25T06:17:29.507Z,14.73
2023-05-25T06:18:29.444Z,14.59
2023-05-25T06:19:29.440Z,14.66
2023-05-25T06:20:29.502Z,14.67
2023-05-25T06:21:29.436Z,14.55
2023-05-25T06:22:29.391Z,14.52
2023-05-25T06:23:29.409Z,14.58
2023-05-25T06:24:29.379Z,14.64
2023-05-25T06:25:29.374Z,14.48
2023-05-25T06:26:29.385Z,14.55
2023-05-25T06:27:29.365Z,14.63
2023-05-25T06:28:29.317Z,14.82
2023-05-25T06:29:29.352Z,15.04
2023-05-25T06:30:29.314Z,14.92
2023-05-25T06:31:29.368Z,14.96
2023-05-25T06:32:29.328Z,15.12
2023-05-25T06:33:29.272Z,15.22
2023-05-25T06:34:29.279Z,15.27
2023-05-25T06:35:29.568Z,15.32
2023-05-25T06:36:29.248Z,15.43
2023-05-25T06:37:29.248Z,15.36
2023-05-25T06:38:29.267Z,15.30
2023-05-25T06:39:29.221Z,15.22
2023-05-25T06:40:29.210Z,15.38
2023-05-25T06:41:29.233Z,15.58
2023-05-25T06:42:29.262Z,15.69
2023-05-25T06:43:29.180Z,15.62
2023-05-25T06:44:29.173Z,15.65
2023-05-25T06:45:29.151Z,15.72
2023-05-25T06:46:29.177Z,15.88
2023-05-25T06:47:31.101Z,15.93
2023-05-25T06:48:29.158Z,16.03
2023-05-25T06:49:29.176Z,15.85
2023-05-25T06:50:29.106Z,15.77
2023-05-25T06:51:29.089Z,15.76
2023-05-25T06:52:29.084Z,15.76
2023-05-25T06:53:29.095Z,15.87
2023-05-25T06:54:29.099Z,15.85
2023-05-25T06:55:29.100Z,15.69
2023-05-25T06:56:29.031Z,15.80
2023-05-25T06:57:29.027Z,15.90
2023-05-25T06:58:29.030Z,16.00
2023-05-25T06:59:29.032Z,16.17
2023-05-25T07:00:29.021Z,16.25
2023-05-25T07:01:29.008Z,16.24
2023-05-25T07:02:29.011Z,16.22
2023-05-25T07:03:28.953Z,16.25
2023-05-25T07:04:29.001Z,16.33
2023-05-25T07:05:29.269Z,16.44
2023-05-25T07:06:28.947Z,16.54
2023-05-25T07:07:28.918Z,16.62
2023-05-25T07:08:28.902Z,16.62
2023-05-25T07:09:28.926Z,16.52
2023-05-25T07:10:28.908Z,16.47
2023-05-25T07:11:28.907Z,16.51
2023-05-25T07:12:28.891Z,16.47
2023-05-25T07:13:28.859Z,16.42
2023-05-25T07:14:28.849Z,16.40
2023-05-25T07:15:28.912Z,16.46
2023-05-25T07:16:28.907Z,16.52
2023-05-25T07:17:28.890Z,16.40
2023-05-25T07:18:28.815Z,16.54
2023-05-25T07:19:28.855Z,16.42
2023-05-25T07:20:28.830Z,16.49
2023-05-25T07:21:28.767Z,16.43
2023-05-25T07:22:28.755Z,16.33
2023-05-25T07:23:28.732Z,16.37
2023-05-25T07:24:28.740Z,16.57
2023-05-25T07:25:28.775Z,16.72
2023-05-25T07:26:28.694Z,16.57
2023-05-25T07:27:28.751Z,16.37
2023-05-25T07:28:28.688Z,16.36
2023-05-25T07:29:28.696Z,16.42
2023-05-25T07:30:28.678Z,16.36
2023-05-25T07:31:28.712Z,16.18
2023-05-25T07:32:28.672Z,16.10
2023-05-25T07:33:28.671Z,15.85
2023-05-25T07:34:28.620Z,15.84
2023-05-25T07:35:28.605Z,15.91
2023-05-25T07:36:28.639Z,15.85
2023-05-25T07:37:28.576Z,15.99
2023-05-25T07:38:28.604Z,15.87
2023-05-25T07:39:28.585Z,15.83
2023-05-25T07:40:28.584Z,15.78
2023-05-25T07:41:28.602Z,15.56
2023-05-25T07:42:28.567Z,15.68
2023-05-25T07:43:28.524Z,15.72
2023-05-25T07:44:28.519Z,15.78
2023-05-25T07:45:28.549Z,15.91
2023-05-25T07:46:28.576Z,16.02
2023-05-25T07:47:28.523Z,15.91
2023-05-25T07:48:28.454Z,16.02
2023-05-25T07:49:28.458Z,16.13
2023-05-25T07:50:29.433Z,16.25
2023-05-25T07:51:28.452Z,15.93
2023-05-25T07:52:28.453Z,15.54
2023-05-25T07:53:28.425Z,15.44
2023-05-25T07:54:28.432Z,15.48
2023-05-25T07:55:28.419Z,15.56
2023-05-25T07:56:28.376Z,15.72
2023-05-25T07:57:28.372Z,15.66
2023-05-25T07:58:28.436Z,15.60
2023-05-25T07:59:28.387Z,15.63
2023-05-25T08:00:28.362Z,15.48
2023-05-25T08:01:28.337Z,15.59
2023-05-25T08:02:28.520Z,15.85
2023-05-25T08:03:39.707Z,16.06
2023-05-25T08:04:28.491Z,16.22
2023-05-25T08:05:28.291Z,16.25
2023-05-25T08:06:28.309Z,16.33
2023-05-25T08:07:28.286Z,16.18
2023-05-25T08:08:28.259Z,16.03
2023-05-25T08:09:28.246Z,16.02
2023-05-25T08:10:28.237Z,16.10
2023-05-25T08:11:28.244Z,16.29
2023-05-25T08:12:45.938Z,16.49
2023-05-25T08:13:28.203Z,16.65
2023-05-25T08:14:28.219Z,16.55
2023-05-25T08:15:28.166Z,16.28
2023-05-25T08:16:28.202Z,16.40
2023-05-25T08:17:28.216Z,16.59
2023-05-25T08:18:28.163Z,16.72
2023-05-25T08:19:28.186Z,16.54
2023-05-25T08:20:28.287Z,16.22
2023-05-25T08:21:28.103Z,16.22
2023-05-25T08:22:28.168Z,16.17
2023-05-25T08:23:28.083Z,16.32
2023-05-25T08:24:28.066Z,16.16
2023-05-25T08:25:28.064Z,16.03
2023-05-25T08:26:37.992Z,16.21
2023-05-25T08:27:28.071Z,16.32
2023-05-25T08:28:28.039Z,15.96
2023-05-25T08:29:28.028Z,15.93
2023-05-25T08:30:28.004Z,16.00
2023-05-25T08:31:28.004Z,16.46
2023-05-25T08:32:27.990Z,16.76
2023-05-25T08:33:28.005Z,16.54
2023-05-25T08:34:27.982Z,16.28
2023-05-25T08:35:27.983Z,16.09
2023-05-25T08:36:27.985Z,16.08
2023-05-25T08:37:27.938Z,16.39
2023-05-25T08:38:27.954Z,16.52
2023-05-25T08:39:27.909Z,16.34
2023-05-25T08:40:27.911Z,16.17
2023-05-25T08:41:27.947Z,15.96
2023-05-25T08:42:27.903Z,15.80
2023-05-25T08:43:27.881Z,15.80
2023-05-25T08:44:27.858Z,15.69
2023-05-25T08:45:49.615Z,15.72
2023-05-25T08:46:27.845Z,15.76
2023-05-25T08:47:27.858Z,15.66
2023-05-25T08:48:40.127Z,15.73
2023-05-25T08:49:27.873Z,15.90
2023-05-25T08:50:34.341Z,15.99
2023-05-25T08:51:27.770Z,16.03
2023-05-25T08:52:27.774Z,16.39
2023-05-25T08:53:27.791Z,16.69
2023-05-25T08:54:27.747Z,16.58
2023-05-25T08:55:27.740Z,16.52
2023-05-25T08:56:27.725Z,16.29
2023-05-25T08:57:27.739Z,15.99
2023-05-25T08:58:27.725Z,15.73
2023-05-25T08:59:27.703Z,15.60
2023-05-25T09:00:27.692Z,15.50
2023-05-25T09:01:27.735Z,15.50
2023-05-25T09:02:27.707Z,15.62
2023-05-25T09:03:27.701Z,15.59
2023-05-25T09:04:27.654Z,15.73
2023-05-25T09:05:27.628Z,16.06
2023-05-25T09:06:27.622Z,16.40
2023-05-25T09:07:27.611Z,16.70
2023-05-25T09:08:27.588Z,16.40
2023-05-25T09:09:27.608Z,15.83
2023-05-25T09:10:27.584Z,15.68
2023-05-25T09:11:37.503Z,15.87
2023-05-25T09:12:27.565Z,16.08
2023-05-25T09:13:27.559Z,16.25
2023-05-25T09:14:27.542Z,16.39
2023-05-25T09:15:27.554Z,16.37
2023-05-25T09:16:27.539Z,16.44
2023-05-25T09:17:27.543Z,16.40
2023-05-25T09:18:27.497Z,16.32
2023-05-25T09:19:27.489Z,16.42
2023-05-25T09:20:27.510Z,16.67
2023-05-25T09:21:27.465Z,16.77
2023-05-25T09:22:27.450Z,16.98
2023-05-25T09:23:27.444Z,17.12
2023-05-25T09:24:27.430Z,17.06
2023-05-25T09:25:27.434Z,16.87
2023-05-25T09:26:27.411Z,16.88
2023-05-25T09:27:27.414Z,17.01
2023-05-25T09:28:27.930Z,16.95
2023-05-25T09:29:27.404Z,17.19
2023-05-25T09:30:27.430Z,17.06
2023-05-25T09:31:27.398Z,17.07
2023-05-25T09:32:27.484Z,17.25
2023-05-25T09:33:27.346Z,17.78
2023-05-25T09:34:27.318Z,17.71
2023-05-25T09:35:27.396Z,17.24
2023-05-25T09:36:27.357Z,17.22
2023-05-25T09:37:27.573Z,17.28
2023-05-25T09:38:27.655Z,17.13
2023-05-25T09:39:27.402Z,16.98
2023-05-25T09:40:27.250Z,17.02
2023-05-25T09:41:27.262Z,16.99
2023-05-25T09:42:27.270Z,17.10
2023-05-25T09:43:39.648Z,17.04
2023-05-25T09:44:27.214Z,16.97
2023-05-25T09:45:27.198Z,16.83
2023-05-25T09:46:27.236Z,16.90
2023-05-25T09:47:27.254Z,16.83
2023-05-25T09:48:27.177Z,16.77
2023-05-25T09:49:27.157Z,16.83
2023-05-25T09:50:27.178Z,16.82
2023-05-25T09:51:27.152Z,16.52
2023-05-25T09:52:27.144Z,16.40
2023-05-25T09:53:27.156Z,16.62
2023-05-25T09:54:27.110Z,16.90
2023-05-25T09:55:31.684Z,16.95
2023-05-25T09:56:27.098Z,17.01
2023-05-25T09:57:27.096Z,17.13
2023-05-25T09:58:27.138Z,17.24
2023-05-25T09:59:27.098Z,16.98
2023-05-25T10:00:27.056Z,16.97
2023-05-25T10:01:27.102Z,17.12
2023-05-25T10:02:27.080Z,17.43
2023-05-25T10:03:27.032Z,17.53
2023-05-25T10:04:27.177Z,17.37
2023-05-25T10:05:27.005Z,17.34
2023-05-25T10:06:26.983Z,17.16
2023-05-25T10:07:26.967Z,17.12
2023-05-25T10:08:28.908Z,16.82
2023-05-25T10:09:26.976Z,16.67
2023-05-25T10:10:26.928Z,16.80
2023-05-25T10:11:26.977Z,16.95
2023-05-25T10:12:26.920Z,17.01
2023-05-25T10:13:26.915Z,17.12
2023-05-25T10:14:29.344Z,16.99
2023-05-25T10:15:26.905Z,16.97
2023-05-25T10:16:26.976Z,17.13
2023-05-25T10:17:26.868Z,17.31
2023-05-25T10:18:26.893Z,17.54
2023-05-25T10:19:26.851Z,17.84
2023-05-25T10:20:29.437Z,18.03
2023-05-25T10:21:26.831Z,17.65
2023-05-25T10:22:26.822Z,17.22
2023-05-25T10:23:26.820Z,17.25
2023-05-25T10:24:26.819Z,17.28
2023-05-25T10:25:26.816Z,17.24
2023-05-25T10:26:26.777Z,17.12
2023-05-25T10:27:27.791Z,17.16
2023-05-25T10:28:26.779Z,17.32
2023-05-25T10:29:26.742Z,17.27
2023-05-25T10:30:26.750Z,17.34
2023-05-25T10:31:26.763Z,17.57
2023-05-25T10:32:26.717Z,17.84
2023-05-25T10:33:26.698Z,17.86
2023-05-25T10:34:26.694Z,17.79
2023-05-25T10:35:26.714Z,17.88
2023-05-25T10:36:26.655Z,17.97
2023-05-25T10:37:26.658Z,17.94
2023-05-25T10:38:26.647Z,17.88
2023-05-25T10:39:26.629Z,17.81
2023-05-25T10:40:26.666Z,17.72
2023-05-25T10:41:26.624Z,17.71
2023-05-25T10:42:26.616Z,17.59
2023-05-25T10:43:26.587Z,17.52
2023-05-25T10:44:26.575Z,17.47
2023-05-25T10:45:26.567Z,17.47
2023-05-25T10:46:26.564Z,17.34
2023-05-25T10:47:26.595Z,17.39
2023-05-25T10:48:26.532Z,17.31
2023-05-25T10:49:26.541Z,17.46
2023-05-25T10:50:26.522Z,17.62
2023-05-25T10:51:26.502Z,17.66
2023-05-25T10:52:26.490Z,17.57
2023-05-25T10:53:26.490Z,17.46
2023-05-25T10:54:26.508Z,17.41
2023-05-25T10:55:26.448Z,17.27
2023-05-25T10:56:26.460Z,17.30
2023-05-25T10:57:26.455Z,17.41
2023-05-25T10:58:26.421Z,17.50
2023-05-25T10:59:26.421Z,17.81
2023-05-25T11:00:26.455Z,17.97
2023-05-25T11:01:26.440Z,17.99
2023-05-25T11:02:26.388Z,17.79
2023-05-25T11:03:26.381Z,17.53
2023-05-25T11:04:26.441Z,17.83
2023-05-25T11:05:26.394Z,17.99
2023-05-25T11:06:26.402Z,18.08
2023-05-25T11:07:26.346Z,18.24
2023-05-25T11:08:26.315Z,18.02
2023-05-25T11:09:26.313Z,17.73
2023-05-25T11:10:26.304Z,17.62
2023-05-25T11:11:26.302Z,17.72
2023-05-25T11:12:26.284Z,17.37
2023-05-25T11:13:26.255Z,17.25
2023-05-25T11:14:26.255Z,17.49
2023-05-25T11:15:26.255Z,17.71
2023-05-25T11:16:26.272Z,17.96
2023-05-25T11:17:26.309Z,17.83
2023-05-25T11:18:26.205Z,17.56
2023-05-25T11:19:26.196Z,17.53
2023-05-25T11:20:26.197Z,17.63
2023-05-25T11:21:26.185Z,17.72
2023-05-25T11:22:26.169Z,17.83
2023-05-25T11:23:26.175Z,17.96
2023-05-25T11:24:26.121Z,17.84
2023-05-25T11:25:26.136Z,17.94
2023-05-25T11:26:26.129Z,17.88
2023-05-25T11:27:26.116Z,17.88
2023-05-25T11:28:26.108Z,17.84
2023-05-25T11:29:26.092Z,17.76
2023-05-25T11:30:26.062Z,17.83
2023-05-25T11:31:26.091Z,18.02
2023-05-25T11:32:26.140Z,18.21
2023-05-25T11:33:26.064Z,18.28
2023-05-25T11:34:26.036Z,18.23
2023-05-25T11:35:26.032Z,17.96
2023-05-25T11:36:26.008Z,17.97
2023-05-25T11:37:26.018Z,18.17
2023-05-25T11:38:25.988Z,18.08
2023-05-25T11:39:25.997Z,17.83
2023-05-25T11:40:25.949Z,17.90
2023-05-25T11:41:25.969Z,17.86
2023-05-25T11:42:25.942Z,17.97
2023-05-25T11:43:25.950Z,18.06
2023-05-25T11:44:25.913Z,17.90
2023-05-25T11:45:25.906Z,18.02
2023-05-25T11:46:25.935Z,18.12
2023-05-25T11:47:25.971Z,18.39
2023-05-25T11:48:25.903Z,18.66
2023-05-25T11:49:25.921Z,18.82
2023-05-25T11:50:25.857Z,18.93
2023-05-25T11:51:25.853Z,18.98
2023-05-25T11:52:25.834Z,18.88
2023-05-25T11:53:25.816Z,18.83
2023-05-25T11:54:25.827Z,18.48
2023-05-25T11:55:25.808Z,18.26
2023-05-25T11:56:35.233Z,18.34
2023-05-25T11:57:25.797Z,18.15
2023-05-25T11:58:25.782Z,18.26
2023-05-25T11:59:27.265Z,18.15
2023-05-25T12:00:25.753Z,17.99
2023-05-25T12:01:25.746Z,17.96
2023-05-25T12:02:25.807Z,18.02
2023-05-25T12:03:25.783Z,18.13
2023-05-25T12:04:25.820Z,18.27
2023-05-25T12:05:25.827Z,18.41
2023-05-25T12:06:25.671Z,18.28
2023-05-25T12:07:25.678Z,18.11
2023-05-25T12:08:25.677Z,18.18
2023-05-25T12:09:25.638Z,18.36
2023-05-25T12:10:25.639Z,18.30
2023-05-25T12:11:25.640Z,17.86
2023-05-25T12:12:25.621Z,17.72
2023-05-25T12:13:25.624Z,17.87
2023-05-25T12:14:25.634Z,18.01
2023-05-25T12:15:25.592Z,18.11
2023-05-25T12:16:25.595Z,18.21
2023-05-25T12:17:25.589Z,18.20
2023-05-25T12:18:25.584Z,17.96
2023-05-25T12:19:25.556Z,18.02
2023-05-25T12:20:25.578Z,18.13
2023-05-25T12:21:25.574Z,18.43
2023-05-25T12:22:25.505Z,18.51
2023-05-25T12:23:25.522Z,18.64
2023-05-25T12:24:25.486Z,18.54
2023-05-25T12:25:26.004Z,18.60
2023-05-25T12:26:25.486Z,18.64
2023-05-25T12:27:25.471Z,18.75
2023-05-25T12:28:25.457Z,18.74
2023-05-25T12:29:25.447Z,18.91
2023-05-25T12:30:25.429Z,19.04
2023-05-25T12:31:25.442Z,18.98
2023-05-25T12:32:25.466Z,18.96
2023-05-25T12:33:25.410Z,18.96
2023-05-25T12:34:25.375Z,18.74
2023-05-25T12:35:25.401Z,18.33
2023-05-25T12:36:25.356Z,18.20
2023-05-25T12:37:25.341Z,18.23
2023-05-25T12:38:25.358Z,18.45
2023-05-25T12:39:25.330Z,18.64
2023-05-25T12:40:25.336Z,18.64
2023-05-25T12:41:25.311Z,18.64
2023-05-25T12:42:25.286Z,18.60
2023-05-25T12:43:25.288Z,18.63
2023-05-25T12:44:25.440Z,18.78
2023-05-25T12:45:25.256Z,18.76
2023-05-25T12:46:25.393Z,18.93
2023-05-25T12:47:25.345Z,18.97
2023-05-25T12:48:25.276Z,18.83
2023-05-25T12:49:25.230Z,18.54
2023-05-25T12:50:25.211Z,18.46
2023-05-25T12:51:25.214Z,18.49
2023-05-25T12:52:25.195Z,18.63
2023-05-25T12:53:25.197Z,18.82
2023-05-25T12:54:25.186Z,19.00
2023-05-25T12:55:25.170Z,19.07
2023-05-25T12:56:25.197Z,19.09
2023-05-25T12:57:25.174Z,19.16
2023-05-25T12:58:25.130Z,18.88
2023-05-25T12:59:25.135Z,19.07
2023-05-25T13:00:25.606Z,19.42
2023-05-25T13:01:25.208Z,19.68
2023-05-25T13:02:25.118Z,19.82
2023-05-25T13:03:25.088Z,19.52
2023-05-25T13:04:25.055Z,19.44
2023-05-25T13:05:25.354Z,19.70
2023-05-25T13:06:25.051Z,19.77